createdAt,value
2022-09-17T00:01:48.220Z,8.72
2022-09-17T00:04:50.215Z,8.64
2022-09-17T00:07:52.352Z,8.61
2022-09-17T00:10:54.221Z,8.62
2022-09-17T00:13:58.716Z,8.61
2022-09-17T00:17:02.047Z,8.60
2022-09-17T00:20:05.467Z,8.58
2022-09-17T00:23:08.238Z,8.55
2022-09-17T00:26:10.073Z,8.52
2022-09-17T00:29:12.126Z,8.50
2022-09-17T00:32:13.918Z,8.45
2022-09-17T00:35:15.865Z,8.39
2022-09-17T00:38:17.594Z,8.33
2022-09-17T00:41:20.592Z,8.30
2022-09-17T00:44:42.882Z,8.26
2022-09-17T00:48:01.137Z,8.23
2022-09-17T00:51:04.563Z,8.23
2022-09-17T00:54:08.430Z,8.21
2022-09-17T00:57:10.330Z,8.20
2022-09-17T01:00:14.915Z,8.14
2022-09-17T01:03:17.338Z,8.05
2022-09-17T01:06:54.125Z,8.00
2022-09-17T01:10:01.397Z,7.98
2022-09-17T01:13:18.518Z,7.99
2022-09-17T01:16:42.463Z,7.98
2022-09-17T01:20:17.861Z,8.00
2022-09-17T01:23:30.714Z,8.01
2022-09-17T01:27:03.649Z,8.09
2022-09-17T01:30:32.662Z,8.20
2022-09-17T01:33:38.301Z,8.29
2022-09-17T01:37:04.145Z,8.35
2022-09-17T01:40:20.259Z,8.37
2022-09-17T01:43:30.537Z,8.34
2022-09-17T01:46:37.095Z,8.25
2022-09-17T01:49:40.294Z,8.15
2022-09-17T01:52:44.689Z,8.11
2022-09-17T01:55:46.841Z,8.16
2022-09-17T01:58:53.882Z,8.23
2022-09-17T02:02:02.162Z,8.18
2022-09-17T02:05:16.974Z,8.06
2022-09-17T02:08:24.396Z,7.93
2022-09-17T02:11:26.335Z,7.72
2022-09-17T02:14:33.706Z,7.54
2022-09-17T02:17:40.529Z,7.41
2022-09-17T02:20:46.786Z,7.32
2022-09-17T02:24:04.226Z,7.23
2022-09-17T02:27:32.741Z,7.15
2022-09-17T02:30:34.679Z,7.13
2022-09-17T02:33:38.231Z,7.10
2022-09-17T02:36:40.300Z,7.06
2022-09-17T02:39:42.617Z,7.00
2022-09-17T02:43:06.458Z,6.92
2022-09-17T02:46:37.457Z,6.95
2022-09-17T02:49:50.257Z,7.05
2022-09-17T02:53:02.137Z,7.10
2022-09-17T02:56:27.259Z,7.06
2022-09-17T02:59:56.059Z,7.08
2022-09-17T03:03:01.158Z,7.20
2022-09-17T03:06:03.066Z,7.33
2022-09-17T03:09:04.861Z,7.40
2022-09-17T03:12:06.813Z,7.45
2022-09-17T03:15:09.098Z,7.48
2022-09-17T03:18:10.986Z,7.49
2022-09-17T03:21:12.856Z,7.50
2022-09-17T03:24:14.655Z,7.50
2022-09-17T03:27:16.519Z,7.51
2022-09-17T03:30:19.051Z,7.56
2022-09-17T03:33:21.081Z,7.65
2022-09-17T03:36:22.875Z,7.75
2022-09-17T03:39:24.718Z,7.79
2022-09-17T03:42:26.565Z,7.82
2022-09-17T03:45:28.333Z,7.90
2022-09-17T03:48:30.548Z,7.95
2022-09-17T03:51:32.699Z,7.96
2022-09-17T03:54:34.479Z,7.94
2022-09-17T03:57:36.339Z,7.93
2022-09-17T04:00:38.274Z,7.96
2022-09-17T04:03:40.130Z,7.97
2022-09-17T04:06:41.894Z,7.95
2022-09-17T04:09:43.790Z,7.92
2022-09-17T04:12:45.707Z,7.91
2022-09-17T04:15:48.148Z,7.96
2022-09-17T04:18:49.959Z,8.05
2022-09-17T04:21:53.118Z,8.11
2022-09-17T04:24:55.154Z,8.13
2022-09-17T04:27:56.926Z,8.14
2022-09-17T04:30:58.969Z,8.13
2022-09-17T04:34:00.745Z,8.07
2022-09-17T04:37:03.827Z,7.93
2022-09-17T04:40:08.040Z,7.73
2022-09-17T04:43:11.058Z,7.53
2022-09-17T04:46:14.372Z,7.34
2022-09-17T04:49:16.273Z,7.16
2022-09-17T04:52:18.304Z,7.04
2022-09-17T04:55:20.233Z,6.94
2022-09-17T04:58:22.111Z,6.87
2022-09-17T05:01:23.976Z,6.83
2022-09-17T05:04:25.958Z,6.74
2022-09-17T05:07:27.830Z,6.68
2022-09-17T05:10:29.609Z,6.66
2022-09-17T05:13:31.376Z,6.66
2022-09-17T05:16:33.565Z,6.71
2022-09-17T05:19:35.469Z,6.81
2022-09-17T05:22:41.993Z,6.94
2022-09-17T05:25:44.062Z,7.07
2022-09-17T05:28:45.918Z,7.19
2022-09-17T05:31:47.827Z,7.23
2022-09-17T05:34:50.319Z,7.29
2022-09-17T05:37:52.145Z,7.45
2022-09-17T05:40:53.950Z,7.75
2022-09-17T05:43:55.693Z,8.38
2022-09-17T05:46:57.547Z,8.80
2022-09-17T05:49:59.862Z,8.96
2022-09-17T05:53:06.279Z,9.05
2022-09-17T05:56:08.293Z,9.12
2022-09-17T05:59:10.143Z,9.19
2022-09-17T06:02:14.948Z,9.29
2022-09-17T06:05:17.484Z,9.43
2022-09-17T06:08:19.264Z,9.71
2022-09-17T06:11:21.099Z,9.75
2022-09-17T06:14:22.793Z,9.86
2022-09-17T06:17:24.491Z,9.92
2022-09-17T06:20:26.318Z,9.99
2022-09-17T06:23:31.484Z,10.24
2022-09-17T06:26:33.355Z,10.56
2022-09-17T06:29:35.115Z,10.82
2022-09-17T06:32:36.875Z,10.97
2022-09-17T06:35:38.625Z,11.18
2022-09-17T06:38:40.572Z,11.33
2022-09-17T06:41:43.436Z,11.59
2022-09-17T06:44:45.226Z,11.93
2022-09-17T06:47:46.963Z,12.35
2022-09-17T06:50:49.223Z,12.37
2022-09-17T06:53:51.087Z,12.32
2022-09-17T06:56:52.809Z,12.37
2022-09-17T06:59:54.762Z,12.47
2022-09-17T07:02:58.249Z,12.58
2022-09-17T07:06:00.214Z,12.66
2022-09-17T07:09:02.863Z,12.75
2022-09-17T07:12:08.395Z,12.76
2022-09-17T07:15:11.558Z,12.67
2022-09-17T07:18:13.430Z,12.58
2022-09-17T07:21:15.124Z,12.54
2022-09-17T07:24:16.956Z,12.63
2022-09-17T07:27:18.763Z,12.84
2022-09-17T07:30:21.047Z,13.05
2022-09-17T07:33:25.619Z,13.18
2022-09-17T07:36:27.946Z,13.37
2022-09-17T07:39:29.690Z,13.48
2022-09-17T07:42:33.149Z,13.45
2022-09-17T07:45:35.035Z,13.50
2022-09-17T07:48:36.918Z,13.68
2022-09-17T07:51:40.441Z,13.88
2022-09-17T07:54:42.642Z,13.96
2022-09-17T07:57:44.520Z,14.01
2022-09-17T08:00:46.440Z,14.12
2022-09-17T08:03:53.021Z,14.14
2022-09-17T08:06:54.859Z,14.01
2022-09-17T08:09:57.066Z,14.03
2022-09-17T08:12:59.204Z,13.94
2022-09-17T08:16:02.569Z,13.78
2022-09-17T08:19:04.322Z,13.68
2022-09-17T08:22:06.098Z,13.63
2022-09-17T08:25:09.170Z,13.57
2022-09-17T08:28:11.441Z,13.44
2022-09-17T08:31:14.327Z,13.38
2022-09-17T08:34:16.511Z,13.39
2022-09-17T08:37:18.267Z,13.46
2022-09-17T08:40:22.579Z,13.65
2022-09-17T08:43:25.717Z,13.95
2022-09-17T08:46:28.985Z,14.17
2022-09-17T08:49:37.431Z,14.41
2022-09-17T08:52:54.916Z,14.47
2022-09-17T08:56:11.319Z,14.45
2022-09-17T08:59:28.414Z,14.63
2022-09-17T09:02:44.101Z,14.96
2022-09-17T09:05:52.650Z,15.20
2022-09-17T09:09:04.031Z,15.55
2022-09-17T09:12:26.957Z,15.36
2022-09-17T09:15:33.092Z,15.52
2022-09-17T09:18:37.915Z,16.11
2022-09-17T09:21:45.683Z,16.79
2022-09-17T09:25:13.288Z,17.12
2022-09-17T09:28:23.322Z,16.92
2022-09-17T09:31:39.872Z,16.86
2022-09-17T09:34:41.850Z,16.43
2022-09-17T09:37:50.727Z,16.07
2022-09-17T09:41:00.937Z,16.02
2022-09-17T09:44:10.672Z,16.20
2022-09-17T09:47:27.196Z,16.43
2022-09-17T09:51:01.722Z,16.36
2022-09-17T09:54:37.146Z,16.30
2022-09-17T09:57:47.718Z,16.44
2022-09-17T10:00:49.579Z,16.04
2022-09-17T10:03:52.845Z,15.88
2022-09-17T10:07:20.789Z,16.42
2022-09-17T10:10:23.094Z,17.25
2022-09-17T10:13:25.301Z,18.21
2022-09-17T10:16:29.489Z,18.76
2022-09-17T10:19:31.363Z,18.82
2022-09-17T10:22:44.910Z,18.64
2022-09-17T10:25:47.698Z,18.68
2022-09-17T10:29:11.695Z,19.05
2022-09-17T10:32:18.198Z,19.44
2022-09-17T10:35:19.966Z,19.11
2022-09-17T10:38:37.031Z,18.55
2022-09-17T10:41:56.679Z,18.78
2022-09-17T10:45:01.021Z,19.06
2022-09-17T10:48:02.952Z,18.86
2022-09-17T10:51:06.873Z,18.54
2022-09-17T10:54:14.786Z,18.11
2022-09-17T10:57:36.622Z,17.93
2022-09-17T11:01:09.526Z,17.74
2022-09-17T11:04:25.056Z,17.67
2022-09-17T11:07:47.264Z,17.48
2022-09-17T11:10:59.939Z,17.30
2022-09-17T11:14:41.563Z,17.18
2022-09-17T11:18:04.890Z,17.12
2022-09-17T11:21:14.449Z,16.85
2022-09-17T11:24:26.034Z,16.68
2022-09-17T11:27:48.738Z,16.52
2022-09-17T11:31:24.229Z,16.18
2022-09-17T11:34:53.954Z,15.94
2022-09-17T11:38:11.199Z,15.86
2022-09-17T11:41:14.600Z,15.93
2022-09-17T11:44:33.357Z,15.89
2022-09-17T11:47:39.314Z,15.91
2022-09-17T11:50:46.814Z,16.00
2022-09-17T11:54:03.730Z,16.02
2022-09-17T11:57:35.761Z,15.92
2022-09-17T12:00:43.261Z,15.86
2022-09-17T12:04:01.875Z,15.71
2022-09-17T12:07:30.295Z,15.55
2022-09-17T12:10:35.091Z,15.28
2022-09-17T12:13:42.994Z,14.96
2022-09-17T12:16:46.864Z,14.69
2022-09-17T12:19:55.494Z,14.46
2022-09-17T12:22:58.754Z,14.24
2022-09-17T12:26:34.139Z,14.06
2022-09-17T12:29:48.083Z,13.86
2022-09-17T12:33:08.190Z,13.76
2022-09-17T12:36:27.825Z,13.73
2022-09-17T12:39:47.512Z,13.66
2022-09-17T12:43:02.742Z,13.55
2022-09-17T12:46:32.918Z,13.51
2022-09-17T12:49:43.931Z,13.47
2022-09-17T12:52:45.612Z,13.46
2022-09-17T12:55:47.395Z,13.50
2022-09-17T12:59:10.635Z,13.56
2022-09-17T13:02:20.024Z,13.65
2022-09-17T13:05:50.625Z,13.68
2022-09-17T13:09:10.991Z,13.72
2022-09-17T13:12:39.737Z,13.78
2022-09-17T13:16:13.383Z,13.83
2022-09-17T13:19:33.480Z,13.85
2022-09-17T13:22:45.441Z,13.90
2022-09-17T13:25:53.782Z,13.95
2022-09-17T13:28:55.736Z,13.96
2022-09-17T13:31:57.737Z,13.98
2022-09-17T13:35:11.598Z,13.97
2022-09-17T13:38:13.492Z,14.06
2022-09-17T13:41:21.498Z,14.10
2022-09-17T13:44:23.980Z,14.12
2022-09-17T13:47:31.609Z,14.17
2022-09-17T13:50:42.694Z,14.14
2022-09-17T13:53:52.771Z,14.13
2022-09-17T13:57:24.082Z,14.11
2022-09-17T14:01:00.940Z,14.01
2022-09-17T14:04:03.226Z,14.03
2022-09-17T14:07:24.566Z,14.10
2022-09-17T14:10:34.351Z,14.22
2022-09-17T14:13:36.079Z,14.26
2022-09-17T14:16:45.870Z,14.27
2022-09-17T14:19:51.894Z,14.29
2022-09-17T14:23:03.266Z,14.34
2022-09-17T14:26:09.126Z,14.48
2022-09-17T14:29:48.819Z,14.54
2022-09-17T14:33:17.660Z,14.46
2022-09-17T14:36:21.134Z,14.32
2022-09-17T14:39:27.895Z,14.18
2022-09-17T14:42:35.243Z,14.07
2022-09-17T14:45:41.535Z,13.94
2022-09-17T14:48:43.401Z,13.84
2022-09-17T14:51:45.419Z,13.79
2022-09-17T14:54:47.161Z,13.78
2022-09-17T14:57:52.602Z,13.76
2022-09-17T15:00:54.452Z,13.73
2022-09-17T15:04:14.506Z,13.69
2022-09-17T15:07:16.320Z,13.61
2022-09-17T15:10:21.235Z,13.52
2022-09-17T15:13:28.489Z,13.47
2022-09-17T15:16:30.838Z,13.40
2022-09-17T15:19:42.108Z,13.38
2022-09-17T15:22:46.210Z,13.38
2022-09-17T15:25:51.505Z,13.33
2022-09-17T15:28:54.362Z,13.29
2022-09-17T15:31:56.282Z,13.24
2022-09-17T15:35:17.342Z,13.19
2022-09-17T15:38:26.917Z,13.14
2022-09-17T15:41:29.105Z,13.11
2022-09-17T15:44:31.848Z,13.09
2022-09-17T15:47:37.017Z,13.07
2022-09-17T15:50:53.992Z,13.03
2022-09-17T15:54:05.251Z,13.01
2022-09-17T15:57:14.358Z,13.00
2022-09-17T16:00:17.232Z,12.98
2022-09-17T16:03:40.701Z,12.95
2022-09-17T16:06:49.078Z,12.93
2022-09-17T16:09:52.419Z,12.89
2022-09-17T16:12:54.311Z,12.84
2022-09-17T16:15:56.380Z,12.79
2022-09-17T16:18:58.345Z,12.75
2022-09-17T16:22:00.110Z,12.69
2022-09-17T16:25:02.038Z,12.65
2022-09-17T16:28:09.374Z,12.59
2022-09-17T16:31:13.589Z,12.51
2022-09-17T16:34:15.394Z,12.45
2022-09-17T16:37:17.246Z,12.40
2022-09-17T16:40:20.020Z,12.35
2022-09-17T16:43:22.186Z,12.29
2022-09-17T16:46:24.049Z,12.20
2022-09-17T16:49:25.918Z,12.12
2022-09-17T16:52:27.693Z,12.06
2022-09-17T16:55:29.769Z,12.00
2022-09-17T16:58:31.658Z,11.95
2022-09-17T17:01:33.465Z,11.90
2022-09-17T17:04:35.343Z,11.85
2022-09-17T17:07:37.322Z,11.81
2022-09-17T17:10:39.373Z,11.79
2022-09-17T17:13:44.847Z,11.77
2022-09-17T17:16:46.677Z,11.75
2022-09-17T17:19:48.474Z,11.71
2022-09-17T17:22:53.080Z,11.66
2022-09-17T17:25:54.852Z,11.62
2022-09-17T17:28:56.741Z,11.60
2022-09-17T17:31:58.626Z,11.56
2022-09-17T17:35:00.498Z,11.50
2022-09-17T17:38:02.303Z,11.48
2022-09-17T17:41:06.868Z,11.42
2022-09-17T17:44:12.833Z,11.38
2022-09-17T17:47:14.786Z,11.35
2022-09-17T17:50:16.929Z,11.35
2022-09-17T17:53:18.788Z,11.33
2022-09-17T17:56:20.756Z,11.28
2022-09-17T17:59:22.765Z,11.25
2022-09-17T18:02:24.705Z,11.20
2022-09-17T18:05:26.799Z,11.13
2022-09-17T18:08:28.514Z,11.02
2022-09-17T18:11:30.579Z,10.95
2022-09-17T18:14:32.379Z,10.93
2022-09-17T18:17:36.458Z,10.93
2022-09-17T18:20:38.237Z,10.95
2022-09-17T18:23:41.620Z,10.96
2022-09-17T18:26:43.629Z,10.97
2022-09-17T18:29:45.519Z,10.98
2022-09-17T18:32:50.278Z,10.99
2022-09-17T18:35:57.065Z,10.99
2022-09-17T18:42:27.467Z,11.01
2022-09-17T18:45:29.347Z,11.01
2022-09-17T18:48:36.199Z,11.00
2022-09-17T18:51:38.742Z,11.00
2022-09-17T18:54:40.707Z,11.00
2022-09-17T18:57:42.634Z,11.00
2022-09-17T19:00:45.507Z,11.02
2022-09-17T19:03:47.519Z,11.05
2022-09-17T19:06:49.482Z,11.09
2022-09-17T19:09:51.230Z,11.12
2022-09-17T19:12:54.263Z,11.13
2022-09-17T19:15:59.743Z,11.13
2022-09-17T19:19:01.730Z,11.11
2022-09-17T19:22:03.860Z,11.11
2022-09-17T19:25:06.269Z,11.09
2022-09-17T19:28:08.571Z,11.08
2022-09-17T19:31:12.920Z,11.08
2022-09-17T19:34:14.898Z,11.06
2022-09-17T19:37:18.329Z,11.06
2022-09-17T19:40:20.492Z,11.05
2022-09-17T19:43:22.296Z,11.01
2022-09-17T19:46:25.594Z,10.98
2022-09-17T19:49:27.403Z,10.94
2022-09-17T19:52:29.155Z,10.93
2022-09-17T19:55:31.061Z,10.92
2022-09-17T19:58:32.738Z,10.90
2022-09-17T20:01:35.337Z,10.90
2022-09-17T20:04:37.280Z,10.89
2022-09-17T20:07:39.155Z,10.89
2022-09-17T20:10:40.937Z,10.88
2022-09-17T20:13:43.055Z,10.86
2022-09-17T20:16:45.276Z,10.85
2022-09-17T20:19:46.998Z,10.83
2022-09-17T20:22:51.710Z,10.81
2022-09-17T20:25:54.110Z,10.79
2022-09-17T20:28:56.493Z,10.78
2022-09-17T20:31:58.218Z,10.77
2022-09-17T20:35:00.148Z,10.75
2022-09-17T20:39:06.569Z,10.73
2022-09-17T20:41:24.926Z,10.72
2022-09-17T20:44:26.802Z,10.70
2022-09-17T20:47:28.580Z,10.69
2022-09-17T20:50:30.354Z,10.69
2022-09-17T20:53:34.075Z,10.69
2022-09-17T20:56:36.100Z,10.67
2022-09-17T21:00:04.117Z,10.63
2022-09-17T21:03:05.971Z,10.61
2022-09-17T21:06:07.930Z,10.59
2022-09-17T21:09:12.477Z,10.55
2022-09-17T21:12:14.234Z,10.54
2022-09-17T21:15:16.055Z,10.55
2022-09-17T21:18:17.819Z,10.59
2022-09-17T21:21:19.817Z,10.62
2022-09-17T21:24:21.798Z,10.66
2022-09-17T21:27:23.623Z,10.70
2022-09-17T21:30:25.894Z,10.76
2022-09-17T21:33:27.706Z,10.79
2022-09-17T21:36:32.219Z,10.83
2022-09-17T21:39:35.786Z,10.85
2022-09-17T21:42:38.957Z,10.90
2022-09-17T21:45:40.899Z,10.92
2022-09-17T21:48:47.847Z,10.95
2022-09-17T21:51:49.835Z,10.98
2022-09-17T21:54:51.748Z,10.99
2022-09-17T21:57:53.476Z,11.01
2022-09-17T22:00:55.199Z,11.02
2022-09-17T22:03:57.933Z,11.04
2022-09-17T22:07:00.669Z,11.04
2022-09-17T22:10:02.480Z,11.04
2022-09-17T22:13:04.751Z,11.03
2022-09-17T22:16:09.145Z,11.06
2022-09-17T22:19:13.875Z,11.08
2022-09-17T22:22:15.715Z,11.09
2022-09-17T22:25:17.531Z,11.08
2022-09-17T22:28:21.636Z,11.07
2022-09-17T22:31:23.845Z,11.06
2022-09-17T22:34:26.642Z,11.06
2022-09-17T22:37:29.207Z,11.06
2022-09-17T22:40:31.068Z,11.05
2022-09-17T22:43:33.186Z,11.04
2022-09-17T22:46:39.521Z,11.04
2022-09-17T22:49:41.623Z,11.04
2022-09-17T22:52:43.318Z,11.04
2022-09-17T22:55:54.866Z,11.02
2022-09-17T22:58:57.993Z,10.99
2022-09-17T23:01:59.786Z,10.98
2022-09-17T23:05:21.411Z,10.97
2022-09-17T23:08:38.033Z,10.95
2022-09-17T23:11:40.159Z,10.93
2022-09-17T23:14:41.930Z,10.90
2022-09-17T23:17:43.823Z,10.87
2022-09-17T23:21:10.534Z,10.85
2022-09-17T23:24:18.215Z,10.82
2022-09-17T23:27:20.091Z,10.78
2022-09-17T23:30:24.264Z,10.73
2022-09-17T23:33:26.191Z,10.67
2022-09-17T23:36:30.129Z,10.59
2022-09-17T23:39:32.137Z,10.53
2022-09-17T23:42:37.066Z,10.46
2022-09-17T23:45:38.906Z,10.41
2022-09-17T23:48:41.242Z,10.37
2022-09-17T23:51:43.175Z,10.34
2022-09-17T23:54:45.144Z,10.31
2022-09-17T23:57:47.136Z,10.26
